createdAt,value
2018-07-28T00:04:04.504Z,39.40
2018-07-28T00:08:58.459Z,39.50
2018-07-28T00:13:51.758Z,39.80
2018-07-28T00:18:45.128Z,40.00
2018-07-28T00:23:39.636Z,40.30
2018-07-28T00:28:32.602Z,40.50
2018-07-28T00:33:25.784Z,40.70
2018-07-28T00:38:20.695Z,40.70
2018-07-28T00:43:13.665Z,41.00
2018-07-28T00:48:07.971Z,41.10
2018-07-28T00:53:01.234Z,41.20
2018-07-28T00:57:54.644Z,41.30
2018-07-28T01:02:49.116Z,41.70
2018-07-28T01:07:42.376Z,42.00
2018-07-28T01:12:35.635Z,42.10
2018-07-28T01:17:30.068Z,42.70
2018-07-28T01:22:23.415Z,43.40
2018-07-28T01:27:16.519Z,43.70
2018-07-28T01:32:09.755Z,43.90
2018-07-28T01:37:03.100Z,44.30
2018-07-28T01:41:57.240Z,44.60
2018-07-28T01:46:50.495Z,45.00
2018-07-28T01:51:44.722Z,44.70
2018-07-28T01:56:37.884Z,44.50
2018-07-28T02:01:31.256Z,44.10
2018-07-28T02:06:25.219Z,44.00
2018-07-28T02:11:18.527Z,44.10
2018-07-28T02:16:11.931Z,44.40
2018-07-28T02:21:05.356Z,45.10
2018-07-28T02:25:59.721Z,45.30
2018-07-28T02:30:52.788Z,45.30
2018-07-28T02:35:47.138Z,45.10
2018-07-28T02:40:40.358Z,45.00
2018-07-28T02:45:33.591Z,45.20
2018-07-28T02:50:31.032Z,45.40
2018-07-28T02:55:23.121Z,47.40
2018-07-28T03:00:16.622Z,48.00
2018-07-28T03:05:10.696Z,49.60
2018-07-28T03:10:03.648Z,51.00
2018-07-28T03:14:59.929Z,52.20
2018-07-28T03:19:52.795Z,53.30
2018-07-28T03:24:46.029Z,54.30
2018-07-28T03:29:40.110Z,55.00
2018-07-28T03:34:33.619Z,55.50
2018-07-28T03:39:28.760Z,56.10
2018-07-28T03:44:21.359Z,56.70
2018-07-28T03:49:14.849Z,57.30
2018-07-28T03:54:11.929Z,57.80
2018-07-28T03:59:07.424Z,58.30
2018-07-28T04:04:00.821Z,58.40
2018-07-28T04:08:53.801Z,58.70
2018-07-28T04:13:46.850Z,58.90
2018-07-28T04:18:43.080Z,59.00
2018-07-28T04:23:35.698Z,59.20
2018-07-28T04:28:28.947Z,59.60
2018-07-28T04:33:23.643Z,59.80
2018-07-28T04:38:23.282Z,60.00
2018-07-28T04:43:18.273Z,59.90
2018-07-28T04:48:10.838Z,60.00
2018-07-28T04:53:04.116Z,60.00
2018-07-28T04:58:00.289Z,60.10
2018-07-28T05:02:55.868Z,60.00
2018-07-28T05:07:48.351Z,59.80
2018-07-28T05:12:42.494Z,59.60
2018-07-28T05:17:35.763Z,59.30
2018-07-28T05:22:29.261Z,59.00
2018-07-28T05:27:25.756Z,58.60
2018-07-28T05:32:18.389Z,58.40
2018-07-28T05:37:11.848Z,58.10
2018-07-28T05:42:07.354Z,58.30
2018-07-28T05:47:00.394Z,57.70
2018-07-28T05:51:54.511Z,56.50
2018-07-28T05:56:47.538Z,57.00
2018-07-28T06:01:41.712Z,57.50
2018-07-28T06:06:34.619Z,57.90
2018-07-28T06:11:27.689Z,58.50
2018-07-28T06:16:21.964Z,58.80
2018-07-28T06:21:14.909Z,58.90
2018-07-28T06:26:08.164Z,59.40
2018-07-28T06:31:01.484Z,59.30
2018-07-28T06:35:54.714Z,60.80
2018-07-28T06:40:48.164Z,63.20
2018-07-28T06:45:48.999Z,65.80
2018-07-28T06:50:40.944Z,68.60
2018-07-28T06:55:35.872Z,69.90
2018-07-28T07:00:28.765Z,72.50
2018-07-28T07:05:25.088Z,71.50
2018-07-28T07:10:17.607Z,69.40
2018-07-28T07:15:12.400Z,68.90
2018-07-28T07:20:08.403Z,69.60
2018-07-28T07:25:01.300Z,68.20
2018-07-28T07:29:54.437Z,69.20
2018-07-28T07:34:51.137Z,66.50
2018-07-28T07:39:44.325Z,64.60
2018-07-28T07:44:37.940Z,63.20
2018-07-28T07:49:31.148Z,63.30
2018-07-28T07:54:28.160Z,63.50
2018-07-28T07:59:19.968Z,64.60
2018-07-28T08:04:12.908Z,65.30
2018-07-28T08:09:06.039Z,64.10
2018-07-28T08:13:59.508Z,64.50
2018-07-28T08:18:53.746Z,64.00
2018-07-28T08:23:47.021Z,63.80
2018-07-28T08:28:41.798Z,63.70
2018-07-28T08:33:34.575Z,63.80
2018-07-28T08:38:27.783Z,64.20
2018-07-28T08:43:21.007Z,64.40
2018-07-28T08:48:14.316Z,64.70
2018-07-28T08:53:08.123Z,65.00
2018-07-28T08:58:01.297Z,64.90
2018-07-28T09:02:54.654Z,64.50
2018-07-28T09:07:48.168Z,63.40
2018-07-28T09:12:41.530Z,62.20
2018-07-28T09:17:34.801Z,62.50
2018-07-28T09:22:28.323Z,62.50
2018-07-28T09:27:22.367Z,63.00
2018-07-28T09:32:15.480Z,62.40
2018-07-28T09:37:09.017Z,62.60
2018-07-28T09:42:02.860Z,62.20
2018-07-28T09:46:56.137Z,61.40
2018-07-28T09:51:49.532Z,59.80
2018-07-28T09:56:42.827Z,59.00
2018-07-28T10:01:36.367Z,58.70
2018-07-28T10:06:30.837Z,57.80
2018-07-28T10:11:23.923Z,56.70
2018-07-28T10:16:17.709Z,56.70
2018-07-28T10:21:11.192Z,56.30
2018-07-28T10:26:04.624Z,57.10
2018-07-28T10:30:57.960Z,57.40
2018-07-28T10:35:51.592Z,57.70
2018-07-28T10:40:45.017Z,56.40
2018-07-28T10:45:38.896Z,56.90
2018-07-28T10:50:32.668Z,56.60
2018-07-28T10:55:26.579Z,56.30
2018-07-28T11:00:20.843Z,54.50
2018-07-28T11:05:14.936Z,52.40
2018-07-28T11:10:09.131Z,48.50
2018-07-28T11:15:03.056Z,46.50
2018-07-28T11:19:57.006Z,46.20
2018-07-28T11:24:52.017Z,45.00
2018-07-28T11:29:45.513Z,43.10
2018-07-28T11:34:41.256Z,42.50
2018-07-28T11:39:34.443Z,42.60
2018-07-28T11:44:28.336Z,43.00
2018-07-28T11:49:21.935Z,42.10
2018-07-28T11:54:15.002Z,42.20
2018-07-28T11:59:08.140Z,45.50
2018-07-28T12:04:01.576Z,47.80
2018-07-28T12:08:55.320Z,47.10
2018-07-28T12:13:49.645Z,46.80
2018-07-28T12:18:43.815Z,44.60
2018-07-28T12:23:38.232Z,42.50
2018-07-28T12:28:32.785Z,40.40
2018-07-28T12:33:25.876Z,41.90
2018-07-28T12:38:20.072Z,43.60
2018-07-28T12:43:13.198Z,43.00
2018-07-28T12:48:07.134Z,44.90
2018-07-28T12:53:06.012Z,46.00
2018-07-28T12:57:58.320Z,46.20
2018-07-28T13:02:51.718Z,46.40
2018-07-28T13:07:45.540Z,46.30
2018-07-28T13:12:39.421Z,45.80
2018-07-28T13:17:35.327Z,45.10
2018-07-28T13:22:28.740Z,44.30
2018-07-28T13:27:22.816Z,43.70
2018-07-28T13:32:17.211Z,42.40
2018-07-28T13:37:12.716Z,39.20
2018-07-28T13:42:07.923Z,40.70
2018-07-28T13:47:01.228Z,41.90
2018-07-28T13:51:55.399Z,41.50
2018-07-28T13:56:49.316Z,41.40
2018-07-28T14:01:43.899Z,41.40
2018-07-28T14:06:37.295Z,38.50
2018-07-28T14:11:30.543Z,39.10
2018-07-28T14:16:26.848Z,39.70
2018-07-28T14:21:19.879Z,41.60
2018-07-28T14:26:13.916Z,41.10
2018-07-28T14:31:08.359Z,40.00
2018-07-28T14:36:03.452Z,40.70
2018-07-28T14:40:59.648Z,40.20
2018-07-28T14:45:53.282Z,39.50
2018-07-28T14:51:51.332Z,39.40
2018-07-28T14:56:45.492Z,40.50
2018-07-28T15:01:39.124Z,41.20
2018-07-28T15:06:34.668Z,40.40
2018-07-28T15:11:27.843Z,41.10
2018-07-28T15:16:22.019Z,40.40
2018-07-28T15:21:15.403Z,39.90
2018-07-28T15:26:08.692Z,40.40
2018-07-28T15:31:02.145Z,40.70
2018-07-28T15:35:55.643Z,40.90
2018-07-28T15:40:49.129Z,40.30
2018-07-28T15:45:42.849Z,40.70
2018-07-28T15:50:38.562Z,41.10
2018-07-28T15:55:31.740Z,41.10
2018-07-28T16:00:25.543Z,40.90
2018-07-28T16:05:19.434Z,41.30
2018-07-28T16:10:13.173Z,40.90
2018-07-28T16:15:07.054Z,42.70
2018-07-28T16:20:01.917Z,43.10
2018-07-28T16:24:57.448Z,43.80
2018-07-28T16:29:50.923Z,44.60
2018-07-28T16:34:44.812Z,45.10
2018-07-28T16:39:38.498Z,45.00
2018-07-28T16:44:32.093Z,45.30
2018-07-28T16:49:25.616Z,45.50
2018-07-28T16:54:19.251Z,45.50
2018-07-28T16:59:12.699Z,45.40
2018-07-28T17:04:06.609Z,45.80
2018-07-28T17:08:59.912Z,46.50
2018-07-28T17:14:00.102Z,46.20
2018-07-28T17:18:58.546Z,46.10
2018-07-28T17:23:51.843Z,46.10
2018-07-28T17:28:45.387Z,46.00
2018-07-28T17:33:40.666Z,46.00
2018-07-28T17:38:33.968Z,45.90
2018-07-28T17:43:27.380Z,46.10
2018-07-28T17:48:21.067Z,46.10
2018-07-28T17:53:15.771Z,45.30
2018-07-28T17:58:11.171Z,44.20
2018-07-28T18:03:04.876Z,44.10
2018-07-28T18:07:59.319Z,43.80
2018-07-28T18:12:54.618Z,43.10
2018-07-28T18:17:49.557Z,43.80
2018-07-28T18:22:42.676Z,43.10
2018-07-28T18:27:36.194Z,43.20
2018-07-28T18:32:30.854Z,42.90
2018-07-28T18:37:24.187Z,42.60
2018-07-28T18:42:17.603Z,42.70
2018-07-28T18:47:18.991Z,42.90
2018-07-28T18:52:12.230Z,43.00
2018-07-28T18:57:06.742Z,42.80
2018-07-28T19:02:00.609Z,42.50
2018-07-28T19:06:53.890Z,42.60
2018-07-28T19:11:47.495Z,42.20
2018-07-28T19:16:40.879Z,42.50
2018-07-28T19:21:34.541Z,42.20
2018-07-28T19:26:28.826Z,42.20
2018-07-28T19:31:21.987Z,42.20
2018-07-28T19:36:15.145Z,42.80
2018-07-28T19:41:08.241Z,43.20
2018-07-28T19:46:01.844Z,43.50
2018-07-28T19:50:55.427Z,43.60
2018-07-28T19:55:48.969Z,42.90
2018-07-28T20:00:42.353Z,42.70
2018-07-28T20:05:35.604Z,43.10
2018-07-28T20:10:29.044Z,43.70
